Time;durP1;ratioP1;P1;durP2;ratioP2;P2;SDS_P1;SDS_P2;PMS_P1;PMS_P2;Temp;Humidity;BMP_temperature;BMP_pressure;BME280_temperature;BME280_humidity;BME280_pressure;Samples;Min_cycle;Max_cycle;Signal;HPM_P1;HPM_P2
2022/10/31 00:00:59;;;;;;;22.38;15.02;;;17.40;1.00;;;;;;5049864;28;20438;-56
2022/10/31 00:03:26;;;;;;;21.42;14.95;;;17.40;1.00;;;;;;5049508;28;20037;-55
2022/10/31 00:05:52;;;;;;;23.58;15.50;;;17.40;1.00;;;;;;5050142;28;20033;-57
2022/10/31 00:08:18;;;;;;;23.20;14.88;;;17.30;1.00;;;;;;5049163;28;20032;-58
2022/10/31 00:14:06;;;;;;;22.63;14.75;;;17.30;1.00;;;;;;5048664;28;20531;-58
2022/10/31 00:16:32;;;;;;;25.95;16.35;;;17.30;1.00;;;;;;5050561;28;20037;-54
2022/10/31 00:19:00;;;;;;;25.23;16.48;;;17.30;1.00;;;;;;5052992;28;20039;-57
2022/10/31 00:21:27;;;;;;;26.05;17.58;;;17.30;1.00;;;;;;5052528;28;20020;-55
2022/10/31 00:23:52;;;;;;;24.88;15.15;;;17.30;1.00;;;;;;5046711;28;20084;-58
2022/10/31 00:26:18;;;;;;;26.85;14.88;;;17.30;1.00;;;;;;5054218;28;20033;-56
2022/10/31 00:28:44;;;;;;;25.58;15.35;;;17.30;1.00;;;;;;5048832;28;20088;-56
2022/10/31 00:31:12;;;;;;;24.98;15.73;;;17.20;1.00;;;;;;5053826;28;20447;-58
2022/10/31 00:33:38;;;;;;;25.23;15.85;;;17.20;1.00;;;;;;5055617;28;20394;-58
2022/10/31 00:36:05;;;;;;;28.10;16.48;;;17.20;1.00;;;;;;5050816;28;20442;-56
2022/10/31 00:38:31;;;;;;;21.80;15.80;;;17.20;1.00;;;;;;5051141;28;20029;-58
2022/10/31 00:40:57;;;;;;;20.88;14.07;;;17.20;1.00;;;;;;5052239;28;20029;-57
2022/10/31 00:43:23;;;;;;;23.38;15.18;;;17.20;1.00;;;;;;5050753;28;20032;-57
2022/10/31 00:45:49;;;;;;;26.85;15.60;;;17.20;1.00;;;;;;5051996;28;20430;-55
2022/10/31 00:48:14;;;;;;;23.35;14.90;;;17.20;1.00;;;;;;5053520;28;20036;-58
2022/10/31 00:50:40;;;;;;;28.02;15.75;;;17.20;1.00;;;;;;5053531;28;20063;-54
2022/10/31 00:53:06;;;;;;;27.85;15.90;;;17.20;1.00;;;;;;5050239;28;20032;-58
2022/10/31 00:55:32;;;;;;;21.65;14.85;;;17.20;1.00;;;;;;5055176;28;20050;-58
2022/10/31 00:57:57;;;;;;;23.88;14.98;;;17.10;1.00;;;;;;5052057;28;20116;-57
2022/10/31 01:00:23;;;;;;;24.23;15.48;;;17.10;1.00;;;;;;5052177;28;20456;-58
2022/10/31 01:02:49;;;;;;;26.40;15.60;;;17.10;1.00;;;;;;5051894;28;20025;-58
2022/10/31 01:05:14;;;;;;;23.88;14.43;;;17.10;1.00;;;;;;5047668;28;20371;-58
2022/10/31 01:07:41;;;;;;;24.17;15.40;;;17.10;1.00;;;;;;5052394;28;20034;-59
2022/10/31 01:10:07;;;;;;;21.80;14.65;;;17.10;1.00;;;;;;5053679;28;20032;-58
2022/10/31 01:12:40;;;;;;;23.45;15.07;;;17.10;1.00;;;;;;5051808;28;20024;-57
2022/10/31 01:15:08;;;;;;;21.35;13.82;;;17.10;1.00;;;;;;5053619;28;20116;-58
2022/10/31 01:17:33;;;;;;;27.92;14.65;;;17.00;1.00;;;;;;5053410;28;20044;-59
2022/10/31 01:19:59;;;;;;;22.20;13.88;;;17.10;1.00;;;;;;5051361;28;20032;-58
2022/10/31 01:22:24;;;;;;;21.88;14.88;;;17.10;1.00;;;;;;5050670;28;20025;-57
2022/10/31 01:24:50;;;;;;;23.17;14.63;;;17.00;1.00;;;;;;5049410;28;20025;-58
2022/10/31 01:27:16;;;;;;;21.75;14.45;;;17.00;1.00;;;;;;5051030;28;20065;-60
2022/10/31 01:29:41;;;;;;;23.02;13.63;;;17.00;1.00;;;;;;5051277;28;20029;-58
2022/10/31 01:32:07;;;;;;;21.17;14.48;;;17.00;1.00;;;;;;5046155;28;20402;-56
2022/10/31 01:34:32;;;;;;;21.92;14.70;;;17.00;1.00;;;;;;5050121;28;20037;-56
2022/10/31 01:36:58;;;;;;;21.33;14.55;;;17.00;1.00;;;;;;5052347;28;20021;-58
2022/10/31 01:39:24;;;;;;;22.33;14.63;;;17.00;1.00;;;;;;5050025;28;20033;-59
2022/10/31 01:41:52;;;;;;;20.85;13.77;;;17.00;1.00;;;;;;5051936;28;20025;-58
2022/10/31 01:44:17;;;;;;;20.85;13.82;;;17.00;1.00;;;;;;5051314;28;20025;-58
2022/10/31 01:47:00;;;;;;;22.15;13.68;;;17.00;1.00;;;;;;5053823;28;20037;-58
2022/10/31 01:49:42;;;;;;;20.48;12.60;;;17.00;1.00;;;;;;5050817;28;20075;-58
2022/10/31 01:52:38;;;;;;;26.67;14.55;;;17.00;1.00;;;;;;5053390;28;20036;-57
2022/10/31 01:55:13;;;;;;;19.70;13.82;;;17.00;1.00;;;;;;5043026;28;20056;-57
2022/10/31 01:57:43;;;;;;;21.85;12.73;;;16.90;1.00;;;;;;5051926;28;20033;-58
2022/10/31 02:00:11;;;;;;;22.90;11.88;;;17.00;1.00;;;;;;5049314;28;20063;-58
2022/10/31 02:02:37;;;;;;;19.80;12.70;;;17.00;1.00;;;;;;5051204;28;20039;-58
2022/10/31 02:05:06;;;;;;;22.92;13.45;;;17.00;1.00;;;;;;5046116;28;20021;-58
2022/10/31 02:07:39;;;;;;;24.33;13.13;;;17.00;1.00;;;;;;5048715;28;20068;-57
2022/10/31 02:10:05;;;;;;;17.80;12.85;;;17.00;1.00;;;;;;5049597;28;20028;-58
2022/10/31 02:12:32;;;;;;;20.98;12.63;;;17.00;1.00;;;;;;5047743;28;20044;-58
2022/10/31 02:14:59;;;;;;;19.70;13.32;;;17.00;1.00;;;;;;5048635;28;20551;-58
2022/10/31 02:17:25;;;;;;;21.95;13.48;;;17.00;1.00;;;;;;5047998;28;20141;-57
2022/10/31 02:20:05;;;;;;;21.75;12.55;;;16.90;1.00;;;;;;5050653;28;20117;-57
2022/10/31 02:22:36;;;;;;;19.75;13.00;;;16.90;1.00;;;;;;5053650;28;20035;-58
2022/10/31 02:25:21;;;;;;;19.63;12.95;;;16.90;1.00;;;;;;5046848;28;20399;-57
2022/10/31 02:27:50;;;;;;;;;;;16.90;1.00;;;;;;5065788;28;20041;-58
2022/10/31 02:30:25;;;;;;;17.17;12.48;;;16.90;1.00;;;;;;5044974;28;19951;-58
2022/10/31 02:32:54;;;;;;;22.92;13.38;;;16.90;1.00;;;;;;5050681;28;20027;-57
2022/10/31 02:35:44;;;;;;;21.60;13.13;;;16.90;1.00;;;;;;5051817;28;20475;-58
2022/10/31 02:38:54;;;;;;;17.23;11.60;;;16.90;1.00;;;;;;5047424;28;20025;-56
2022/10/31 02:41:32;;;;;;;17.67;12.32;;;16.90;1.00;;;;;;5002858;28;20034;-55
2022/10/31 02:44:02;;;;;;;16.95;11.90;;;16.80;1.00;;;;;;4988768;28;20030;-58
2022/10/31 02:46:50;;;;;;;25.45;11.60;;;16.90;1.00;;;;;;5030904;28;20040;-57
2022/10/31 02:49:29;;;;;;;16.90;11.88;;;16.90;1.00;;;;;;5049145;28;20072;-57
2022/10/31 02:51:55;;;;;;;20.40;11.73;;;16.90;1.00;;;;;;5050884;28;20027;-59
2022/10/31 02:54:27;;;;;;;18.00;10.75;;;16.90;1.00;;;;;;5044841;28;20108;-58
2022/10/31 02:57:02;;;;;;;17.55;10.95;;;16.90;1.00;;;;;;5042643;28;20033;-58
2022/10/31 02:59:30;;;;;;;16.15;11.20;;;16.90;1.00;;;;;;5047189;28;20059;-58
2022/10/31 03:02:30;;;;;;;22.42;11.95;;;16.90;1.00;;;;;;5047867;28;20031;-58
2022/10/31 03:05:07;;;;;;;17.17;10.40;;;16.90;1.00;;;;;;5049198;28;20505;-58
2022/10/31 03:07:44;;;;;;;17.67;10.02;;;16.80;1.00;;;;;;5050497;28;20372;-59
2022/10/31 03:10:36;;;;;;;15.55;10.07;;;16.80;1.00;;;;;;5051660;28;20036;-54
2022/10/31 03:13:33;;;;;;;13.60;9.13;;;16.80;1.00;;;;;;5051102;28;20487;-57
2022/10/31 03:16:23;;;;;;;17.15;10.68;;;16.80;1.00;;;;;;5047366;28;20032;-55
2022/10/31 03:19:00;;;;;;;16.17;9.30;;;16.80;1.00;;;;;;5051261;28;20037;-57
2022/10/31 03:21:28;;;;;;;18.70;10.60;;;16.80;1.00;;;;;;5048641;28;20029;-57
2022/10/31 03:23:56;;;;;;;18.27;9.98;;;16.80;1.00;;;;;;5048138;28;20029;-58
2022/10/31 03:26:23;;;;;;;18.17;9.65;;;16.80;1.00;;;;;;5049727;28;20033;-57
2022/10/31 03:29:01;;;;;;;15.95;9.95;;;16.80;1.00;;;;;;5047907;28;20037;-57
2022/10/31 03:31:32;;;;;;;15.20;9.88;;;16.80;1.00;;;;;;5052207;28;20044;-58
2022/10/31 03:34:00;;;;;;;14.63;9.82;;;16.70;1.00;;;;;;5047579;28;20040;-59
2022/10/31 03:36:27;;;;;;;19.15;9.18;;;16.70;1.00;;;;;;5047260;28;20040;-55
2022/10/31 03:38:53;;;;;;;16.52;9.75;;;16.70;1.00;;;;;;5050368;28;20475;-54
2022/10/31 03:41:24;;;;;;;13.80;9.30;;;16.70;1.00;;;;;;5053699;28;20029;-56
2022/10/31 03:43:57;;;;;;;16.73;9.63;;;16.80;1.00;;;;;;5048531;28;20127;-59
2022/10/31 03:46:23;;;;;;;17.08;9.73;;;16.80;1.00;;;;;;5050646;28;20421;-59
2022/10/31 03:48:49;;;;;;;14.07;9.20;;;16.80;1.00;;;;;;5048070;28;20055;-57
2022/10/31 03:51:48;;;;;;;17.60;9.40;;;16.80;1.00;;;;;;5049165;28;20128;-59
2022/10/31 03:54:31;;;;;;;14.70;8.98;;;16.80;1.00;;;;;;4965413;28;20501;-58
2022/10/31 03:57:24;;;;;;;17.67;9.32;;;16.70;1.00;;;;;;5053501;28;20025;-58
2022/10/31 03:59:57;;;;;;;15.10;9.02;;;16.70;1.00;;;;;;5044536;28;20119;-57
2022/10/31 04:02:28;;;;;;;16.17;10.00;;;16.70;1.00;;;;;;5052861;28;20027;-57
2022/10/31 04:04:55;;;;;;;15.00;9.15;;;16.70;1.00;;;;;;5049260;28;20478;-57
2022/10/31 04:07:23;;;;;;;15.50;9.43;;;16.70;1.00;;;;;;5055931;28;20119;-58
2022/10/31 04:09:51;;;;;;;17.38;9.23;;;16.70;1.00;;;;;;5053438;28;20033;-58
2022/10/31 04:12:17;;;;;;;17.45;9.57;;;16.70;1.00;;;;;;5053544;28;20474;-59
2022/10/31 04:14:46;;;;;;;16.17;9.15;;;16.70;1.00;;;;;;5053094;28;20059;-58
2022/10/31 04:17:15;;;;;;;15.68;8.52;;;16.70;1.00;;;;;;5057407;28;20418;-59
2022/10/31 04:19:41;;;;;;;16.20;7.93;;;16.70;1.00;;;;;;5051846;28;20028;-59
2022/10/31 04:22:07;;;;;;;12.55;8.30;;;16.70;1.00;;;;;;5052412;28;20071;-56
2022/10/31 04:24:32;;;;;;;16.48;8.40;;;16.60;1.00;;;;;;5054026;28;20033;-58
2022/10/31 04:26:59;;;;;;;15.85;7.90;;;16.60;1.00;;;;;;5054349;28;20068;-57
2022/10/31 04:29:25;;;;;;;15.85;9.25;;;16.60;1.00;;;;;;5054832;28;20098;-58
2022/10/31 04:31:51;;;;;;;14.98;8.00;;;16.60;1.00;;;;;;5055346;28;20021;-57
2022/10/31 04:34:16;;;;;;;14.13;7.38;;;16.60;1.00;;;;;;5053137;28;20509;-57
2022/10/31 04:36:42;;;;;;;13.48;8.38;;;16.60;1.00;;;;;;5053811;28;20378;-58
2022/10/31 04:39:07;;;;;;;14.68;8.55;;;16.60;1.00;;;;;;5053834;28;20025;-59
2022/10/31 04:41:33;;;;;;;15.77;9.13;;;16.60;1.00;;;;;;5052536;28;20024;-58
2022/10/31 04:43:58;;;;;;;18.25;10.75;;;16.60;1.00;;;;;;5052526;28;20463;-58
2022/10/31 04:46:24;;;;;;;20.75;12.00;;;16.60;1.00;;;;;;5055302;28;20029;-58
2022/10/31 04:48:49;;;;;;;17.13;11.77;;;16.50;1.00;;;;;;5051878;28;20025;-59
2022/10/31 04:51:15;;;;;;;23.67;14.02;;;16.60;1.00;;;;;;5051360;28;20417;-58
2022/10/31 04:53:41;;;;;;;18.15;13.75;;;16.50;1.00;;;;;;5053412;28;20037;-58
2022/10/31 04:56:06;;;;;;;19.02;14.00;;;16.50;1.00;;;;;;5051988;28;20387;-58
2022/10/31 04:58:32;;;;;;;25.88;14.98;;;16.50;1.00;;;;;;5054052;28;20029;-58
2022/10/31 05:00:57;;;;;;;21.98;14.80;;;16.50;1.00;;;;;;5051400;28;20029;-58
2022/10/31 05:03:23;;;;;;;23.63;15.43;;;16.50;1.00;;;;;;5050778;28;20107;-59
2022/10/31 05:05:49;;;;;;;24.42;14.98;;;16.50;1.00;;;;;;5049488;28;20028;-59
2022/10/31 05:08:15;;;;;;;22.73;15.38;;;16.40;1.00;;;;;;5046750;28;20041;-57
2022/10/31 05:10:41;;;;;;;26.73;16.13;;;16.40;1.00;;;;;;5045725;28;20076;-57
2022/10/31 05:13:06;;;;;;;21.40;14.90;;;16.40;1.00;;;;;;5052595;28;20524;-58
2022/10/31 05:15:33;;;;;;;24.48;16.33;;;16.40;1.00;;;;;;5051981;28;20032;-59
2022/10/31 05:17:58;;;;;;;28.02;15.57;;;16.40;1.00;;;;;;5052755;28;20045;-59
2022/10/31 05:20:27;;;;;;;26.10;16.33;;;16.40;1.00;;;;;;5050251;28;20031;-57
2022/10/31 05:22:54;;;;;;;26.45;14.98;;;16.40;1.00;;;;;;5052482;28;20045;-57
2022/10/31 05:25:22;;;;;;;21.02;15.05;;;16.40;1.00;;;;;;5050506;28;20391;-56
2022/10/31 05:27:49;;;;;;;24.55;14.90;;;16.40;1.00;;;;;;5051074;28;20045;-58
2022/10/31 05:30:21;;;;;;;24.10;14.18;;;16.40;1.00;;;;;;5050716;28;20466;-57
2022/10/31 05:32:49;;;;;;;20.10;12.95;;;16.40;1.00;;;;;;5049970;28;20044;-59
2022/10/31 05:35:18;;;;;;;17.98;12.63;;;16.40;1.00;;;;;;5046135;28;20166;-58
2022/10/31 05:37:44;;;;;;;21.27;13.77;;;16.40;1.00;;;;;;5052378;28;20068;-54
2022/10/31 05:40:12;;;;;;;20.25;13.73;;;16.40;1.00;;;;;;5049548;28;20104;-58
2022/10/31 05:42:42;;;;;;;23.20;13.60;;;16.40;1.00;;;;;;5056369;28;20036;-58
2022/10/31 05:45:10;;;;;;;21.58;14.20;;;16.30;1.00;;;;;;5052936;28;20039;-58
2022/10/31 05:47:35;;;;;;;19.05;13.80;;;16.30;1.00;;;;;;5049948;28;20055;-59
2022/10/31 05:50:01;;;;;;;22.70;14.05;;;16.30;1.00;;;;;;5053632;28;20475;-58
2022/10/31 05:52:27;;;;;;;23.08;13.40;;;16.40;1.00;;;;;;5050751;28;20028;-58
2022/10/31 05:54:52;;;;;;;22.77;14.55;;;16.30;1.00;;;;;;5051030;28;20067;-58
2022/10/31 05:57:18;;;;;;;22.85;14.48;;;16.30;1.00;;;;;;5049459;28;20435;-58
2022/10/31 05:59:43;;;;;;;21.50;15.10;;;16.30;1.00;;;;;;5052033;28;20033;-55
2022/10/31 06:02:09;;;;;;;20.77;13.73;;;16.30;1.00;;;;;;5050209;28;20036;-58
2022/10/31 06:04:35;;;;;;;25.55;15.02;;;16.30;1.00;;;;;;5049302;28;20124;-53
2022/10/31 06:07:00;;;;;;;26.52;16.08;;;16.30;1.00;;;;;;5045286;28;20363;-57
2022/10/31 06:09:26;;;;;;;23.02;15.35;;;16.40;1.00;;;;;;5048220;28;20124;-57
2022/10/31 06:11:51;;;;;;;28.27;15.00;;;16.30;1.00;;;;;;5051952;28;20100;-58
2022/10/31 06:14:17;;;;;;;24.05;15.02;;;16.40;1.00;;;;;;5052950;28;20116;-57
2022/10/31 06:16:43;;;;;;;23.83;15.50;;;16.30;1.00;;;;;;5042403;28;20045;-58
2022/10/31 06:19:11;;;;;;;28.15;15.85;;;16.30;1.00;;;;;;5050875;28;20029;-57
2022/10/31 06:21:36;;;;;;;22.10;15.32;;;16.40;1.00;;;;;;5052191;28;20032;-56
2022/10/31 06:24:02;;;;;;;24.70;16.10;;;16.40;1.00;;;;;;5050699;28;20108;-57
2022/10/31 06:26:28;;;;;;;23.15;15.98;;;16.30;1.00;;;;;;5048282;28;20406;-59
2022/10/31 06:28:53;;;;;;;26.52;15.13;;;16.40;1.00;;;;;;5051880;28;20036;-56
2022/10/31 06:31:19;;;;;;;22.40;15.23;;;16.40;1.00;;;;;;5050381;28;20048;-57
2022/10/31 06:33:44;;;;;;;25.33;14.93;;;16.40;1.00;;;;;;5050036;28;20231;-57
2022/10/31 06:36:10;;;;;;;24.02;15.75;;;16.40;1.00;;;;;;5051337;28;20056;-60
2022/10/31 06:38:36;;;;;;;23.95;15.40;;;16.40;1.00;;;;;;5048955;28;20033;-60
2022/10/31 06:41:05;;;;;;;25.30;16.48;;;16.40;1.00;;;;;;5047250;28;20114;-61
2022/10/31 06:43:32;;;;;;;21.23;13.98;;;16.50;1.00;;;;;;5044690;28;20040;-61
2022/10/31 06:46:01;;;;;;;26.58;17.88;;;16.50;1.00;;;;;;5050021;28;20067;-60
2022/10/31 06:48:26;;;;;;;24.05;15.60;;;16.50;1.00;;;;;;5054541;28;20037;-56
2022/10/31 06:50:52;;;;;;;28.17;15.90;;;16.50;1.00;;;;;;5051490;28;20023;-57
2022/10/31 06:53:17;;;;;;;24.92;16.58;;;16.50;1.00;;;;;;5051244;28;20032;-58
2022/10/31 06:55:43;;;;;;;26.48;17.10;;;16.50;1.00;;;;;;5049859;28;20062;-57
2022/10/31 06:58:10;;;;;;;24.55;15.85;;;16.60;1.00;;;;;;5049654;28;20025;-58
2022/10/31 07:00:36;;;;;;;24.40;16.67;;;16.60;1.00;;;;;;5048484;28;20028;-58
2022/10/31 07:03:04;;;;;;;25.25;16.23;;;16.60;1.00;;;;;;5050849;28;20025;-60
2022/10/31 07:05:30;;;;;;;22.08;15.48;;;16.60;1.00;;;;;;5050054;28;20057;-60
2022/10/31 07:07:59;;;;;;;26.40;16.35;;;16.70;1.00;;;;;;5048837;28;20032;-60
2022/10/31 07:10:26;;;;;;;21.42;15.43;;;16.70;1.00;;;;;;5051080;28;20441;-61
2022/10/31 07:12:59;;;;;;;22.73;16.45;;;16.80;1.00;;;;;;5048930;28;20060;-60
2022/10/31 07:15:26;;;;;;;24.13;17.10;;;16.80;1.00;;;;;;5049810;28;20089;-60
2022/10/31 07:17:53;;;;;;;27.00;15.65;;;16.80;1.00;;;;;;5051009;28;20541;-60
2022/10/31 07:20:18;;;;;;;22.48;15.68;;;16.90;1.00;;;;;;5050169;28;20036;-60
2022/10/31 07:22:45;;;;;;;23.27;17.33;;;16.90;1.00;;;;;;5047075;28;20033;-60
2022/10/31 07:25:11;;;;;;;20.92;15.32;;;17.00;1.00;;;;;;5048655;28;20426;-60
2022/10/31 07:27:42;;;;;;;22.00;15.15;;;16.90;1.00;;;;;;5050179;28;20387;-62
2022/10/31 07:30:09;;;;;;;26.95;15.20;;;17.00;1.00;;;;;;5049706;28;20026;-62
2022/10/31 07:32:39;;;;;;;18.63;13.43;;;17.00;1.00;;;;;;5056421;28;20053;-62
2022/10/31 07:35:07;;;;;;;21.08;14.70;;;17.10;1.00;;;;;;5054184;28;20025;-62
2022/10/31 07:37:32;;;;;;;22.63;15.20;;;17.00;1.00;;;;;;5053881;28;20605;-62
2022/10/31 07:39:58;;;;;;;25.80;13.88;;;17.10;1.00;;;;;;5050653;28;20107;-62
2022/10/31 07:42:23;;;;;;;21.98;15.57;;;17.10;1.00;;;;;;5053432;28;20029;-53
2022/10/31 07:44:49;;;;;;;29.90;14.88;;;17.20;1.00;;;;;;5053190;28;20037;-52
2022/10/31 07:47:14;;;;;;;25.10;14.07;;;17.20;1.00;;;;;;5053999;28;20028;-55
2022/10/31 07:49:40;;;;;;;22.98;14.75;;;17.20;1.00;;;;;;5053553;28;20083;-56
2022/10/31 07:52:05;;;;;;;25.02;14.25;;;17.30;1.00;;;;;;5054467;28;20112;-55
2022/10/31 07:54:31;;;;;;;21.75;14.00;;;17.30;1.00;;;;;;5055735;28;20040;-64
2022/10/31 07:56:57;;;;;;;25.38;15.88;;;17.30;1.00;;;;;;5053788;28;20482;-54
2022/10/31 07:59:22;;;;;;;22.52;14.52;;;17.40;1.00;;;;;;5051956;28;20059;-56
2022/10/31 08:01:48;;;;;;;27.20;14.60;;;17.50;1.00;;;;;;5055386;28;20071;-55
2022/10/31 08:04:13;;;;;;;20.80;13.88;;;17.50;1.00;;;;;;5054365;28;20104;-54
2022/10/31 08:06:39;;;;;;;25.63;14.90;;;17.50;1.00;;;;;;5054577;28;20033;-56
2022/10/31 08:09:04;;;;;;;24.73;14.90;;;17.50;1.00;;;;;;5056425;28;20037;-55
2022/10/31 08:11:30;;;;;;;27.15;14.85;;;17.60;1.00;;;;;;5050568;28;20108;-55
2022/10/31 08:13:56;;;;;;;23.83;14.85;;;17.60;1.00;;;;;;5050606;28;20041;-54
2022/10/31 08:16:21;;;;;;;21.95;14.15;;;17.60;1.00;;;;;;5051199;28;20095;-56
2022/10/31 08:18:47;;;;;;;24.80;16.08;;;17.60;1.00;;;;;;5054495;28;20041;-56
2022/10/31 08:21:13;;;;;;;25.27;15.25;;;17.60;1.00;;;;;;5049612;28;20031;-54
2022/10/31 08:23:38;;;;;;;26.13;15.30;;;17.70;1.00;;;;;;5053958;28;20074;-51
2022/10/31 08:26:05;;;;;;;24.17;15.13;;;17.70;1.00;;;;;;5053121;28;20379;-57
2022/10/31 08:28:31;;;;;;;25.77;16.17;;;17.70;1.00;;;;;;5048507;28;20041;-53
2022/10/31 08:30:58;;;;;;;21.48;15.80;;;17.70;1.00;;;;;;5052108;28;20049;-57
2022/10/31 08:33:23;;;;;;;20.67;16.67;;;17.80;1.00;;;;;;5051386;28;20474;-58
2022/10/31 08:35:49;;;;;;;24.27;18.10;;;17.80;1.00;;;;;;5051126;28;20036;-57
2022/10/31 08:38:15;;;;;;;26.65;17.35;;;17.80;1.00;;;;;;5053976;28;20029;-56
2022/10/31 08:40:41;;;;;;;28.60;18.15;;;17.80;1.00;;;;;;5051820;28;20025;-55
2022/10/31 08:43:14;;;;;;;26.88;18.08;;;17.80;1.00;;;;;;5054016;28;20037;-56
2022/10/31 08:45:41;;;;;;;42.03;19.15;;;17.80;1.00;;;;;;5052496;28;20032;-54
2022/10/31 08:48:10;;;;;;;26.92;18.50;;;17.80;1.00;;;;;;5052626;28;20123;-53
2022/10/31 08:50:36;;;;;;;28.10;19.45;;;17.90;1.00;;;;;;5050556;28;20104;-57
2022/10/31 08:53:09;;;;;;;27.17;19.45;;;17.90;1.00;;;;;;5054607;28;20039;-57
2022/10/31 08:55:35;;;;;;;35.25;19.63;;;17.90;1.00;;;;;;5049634;28;20104;-54
2022/10/31 08:58:02;;;;;;;31.65;21.20;;;17.90;1.00;;;;;;5053785;28;20504;-53
2022/10/31 09:00:28;;;;;;;32.05;21.10;;;18.00;1.00;;;;;;5047804;28;20028;-57
2022/10/31 09:02:58;;;;;;;35.00;20.20;;;18.00;1.00;;;;;;5044063;28;20108;-56
2022/10/31 09:05:24;;;;;;;33.03;21.13;;;18.00;1.00;;;;;;5053104;28;20029;-56
2022/10/31 09:07:50;;;;;;;27.42;21.90;;;18.00;1.00;;;;;;5050420;28;20049;-57
2022/10/31 09:10:16;;;;;;;33.35;22.40;;;18.10;1.00;;;;;;5050636;28;20060;-56
2022/10/31 09:12:41;;;;;;;35.72;21.75;;;18.10;1.00;;;;;;5049132;28;20029;-52
2022/10/31 09:15:08;;;;;;;34.17;22.45;;;18.10;1.00;;;;;;5053173;28;20033;-55
2022/10/31 09:17:33;;;;;;;33.90;22.38;;;18.20;1.00;;;;;;5051307;28;20056;-55
2022/10/31 09:19:59;;;;;;;35.95;21.98;;;18.20;1.00;;;;;;5054386;28;20028;-56
2022/10/31 09:22:24;;;;;;;38.50;21.35;;;18.20;1.00;;;;;;5045955;28;20021;-54
2022/10/31 09:24:50;;;;;;;35.40;20.73;;;18.30;1.00;;;;;;5049538;28;20013;-53
2022/10/31 09:27:16;;;;;;;31.40;20.77;;;18.30;1.00;;;;;;5052021;28;20032;-55
2022/10/31 09:29:41;;;;;;;30.30;20.25;;;18.30;1.00;;;;;;5052467;28;20086;-55
2022/10/31 09:32:07;;;;;;;27.63;17.63;;;18.30;1.00;;;;;;5051462;28;20028;-55
2022/10/31 09:34:32;;;;;;;28.67;19.42;;;18.40;1.00;;;;;;5052988;28;20493;-57
2022/10/31 09:36:58;;;;;;;23.40;17.33;;;18.40;1.00;;;;;;5046639;28;20148;-57
2022/10/31 09:39:24;;;;;;;29.73;20.63;;;18.40;1.00;;;;;;5050353;28;20029;-58
2022/10/31 09:42:14;;;;;;;23.55;18.55;;;18.40;1.00;;;;;;5053052;28;20033;-57
2022/10/31 09:45:02;;;;;;;25.38;18.50;;;18.40;1.00;;;;;;5051417;28;20060;-57
2022/10/31 09:47:52;;;;;;;27.17;18.63;;;18.40;1.00;;;;;;5054722;28;20024;-54
2022/10/31 09:50:22;;;;;;;25.80;19.52;;;18.50;1.00;;;;;;5046472;28;20060;-56
2022/10/31 09:53:03;;;;;;;29.55;17.83;;;18.50;1.00;;;;;;5051415;28;20025;-57
2022/10/31 09:55:38;;;;;;;26.95;18.55;;;18.60;1.00;;;;;;5049094;28;20025;-51
2022/10/31 09:58:04;;;;;;;24.77;17.30;;;18.60;1.00;;;;;;5050757;28;20044;-54
2022/10/31 10:00:31;;;;;;;32.20;18.85;;;18.60;1.00;;;;;;5053772;28;20502;-57
2022/10/31 10:03:31;;;;;;;26.42;17.48;;;18.70;1.00;;;;;;5054540;28;20468;-50
2022/10/31 10:06:04;;;;;;;23.45;17.58;;;18.70;1.00;;;;;;5050183;28;20101;-51
2022/10/31 10:08:33;;;;;;;27.33;17.40;;;18.70;1.00;;;;;;5051499;28;20079;-67
2022/10/31 10:11:17;;;;;;;23.55;19.30;;;18.80;1.00;;;;;;5051632;28;20445;-67
2022/10/31 10:14:02;;;;;;;25.92;18.70;;;18.80;1.00;;;;;;5050086;28;20025;-67
2022/10/31 10:16:32;;;;;;;;;;;18.80;1.00;;;;;;5062254;28;20022;-66
2022/10/31 10:18:58;;;;;;;26.35;19.55;;;18.80;1.00;;;;;;5052994;28;19916;-67
2022/10/31 10:21:50;;;;;;;23.70;17.77;;;18.80;1.00;;;;;;5050683;28;20367;-67
2022/10/31 10:24:52;;;;;;;25.38;17.50;;;18.90;1.00;;;;;;5045718;28;20029;-66
2022/10/31 10:27:36;;;;;;;29.67;18.38;;;19.00;1.00;;;;;;5048811;28;20029;-66
2022/10/31 10:30:35;;;;;;;27.60;19.08;;;19.00;1.00;;;;;;5049389;28;20040;-66
2022/10/31 10:33:09;;;;;;;28.27;19.15;;;19.00;1.00;;;;;;5052340;28;20025;-66
2022/10/31 10:35:59;;;;;;;24.80;18.10;;;19.00;1.00;;;;;;5048443;28;20025;-67
2022/10/31 10:38:41;;;;;;;27.35;18.00;;;19.10;1.00;;;;;;5049857;28;20098;-66
2022/10/31 10:41:15;;;;;;;25.23;18.83;;;19.00;1.00;;;;;;5050711;28;20025;-66
2022/10/31 10:43:41;;;;;;;26.08;18.70;;;19.10;1.00;;;;;;5050618;28;20538;-66
2022/10/31 10:49:44;;;;;;;29.17;20.23;;;19.20;1.00;;;;;;5050516;28;20080;-66
2022/10/31 10:52:47;;;;;;;23.38;17.75;;;19.20;1.00;;;;;;5049744;28;20017;-66
2022/10/31 10:55:44;;;;;;;34.97;20.83;;;19.20;1.00;;;;;;5051838;28;20021;-65
2022/10/31 10:58:10;;;;;;;28.13;19.65;;;19.30;1.00;;;;;;5042091;28;20056;-62
2022/10/31 11:00:49;;;;;;;33.13;20.00;;;19.30;1.00;;;;;;5049834;28;20053;-62
2022/10/31 11:03:16;;;;;;;24.23;20.83;;;19.40;1.00;;;;;;5051158;28;20033;-62
2022/10/31 11:05:48;;;;;;;32.10;22.48;;;19.40;1.00;;;;;;5048693;28;20025;-62
2022/10/31 11:08:34;;;;;;;26.65;20.45;;;19.40;1.00;;;;;;5052136;28;20068;-62
2022/10/31 11:11:29;;;;;;;35.40;23.02;;;19.50;1.00;;;;;;5050561;28;20056;-63
2022/10/31 11:14:03;;;;;;;;;;;19.60;1.00;;;;;;5048805;28;20062;-60
2022/10/31 11:16:35;;;;;;;26.23;18.52;;;19.60;1.00;;;;;;5050403;28;19931;-60
2022/10/31 11:19:14;;;;;;;22.75;15.40;;;19.80;1.00;;;;;;5042845;28;20398;-61
2022/10/31 11:21:40;;;;;;;21.08;14.40;;;20.00;1.00;;;;;;5047700;28;20061;-61
2022/10/31 11:24:09;;;;;;;21.25;12.95;;;20.10;1.00;;;;;;5051116;28;20137;-61
2022/10/31 11:26:37;;;;;;;18.85;12.50;;;20.30;1.00;;;;;;5047974;28;20505;-61
2022/10/31 11:29:04;;;;;;;20.67;13.00;;;20.40;1.00;;;;;;5048682;28;20112;-61
2022/10/31 11:31:30;;;;;;;21.90;13.68;;;20.50;1.00;;;;;;5047007;28;20103;-61
2022/10/31 11:34:00;;;;;;;19.75;13.07;;;20.70;1.00;;;;;;5046794;28;20104;-61
2022/10/31 11:36:29;;;;;;;17.90;12.57;;;20.80;1.00;;;;;;5050265;28;20433;-60
2022/10/31 11:38:56;;;;;;;20.25;12.02;;;20.90;1.00;;;;;;5048753;28;20466;-61
2022/10/31 11:41:32;;;;;;;20.80;12.10;;;21.00;1.00;;;;;;5050523;28;20382;-61
2022/10/31 11:44:28;;;;;;;15.05;11.05;;;21.00;1.00;;;;;;5047166;28;20417;-61
2022/10/31 11:47:03;;;;;;;17.05;12.13;;;21.00;1.00;;;;;;5040885;28;20037;-61
2022/10/31 11:49:36;;;;;;;17.88;11.10;;;21.10;1.00;;;;;;5053679;28;20489;-61
2022/10/31 11:52:18;;;;;;;17.88;11.35;;;21.10;1.00;;;;;;5047009;28;20021;-61
2022/10/31 11:54:55;;;;;;;20.27;12.23;;;21.20;1.00;;;;;;5049487;28;20155;-61
2022/10/31 11:57:25;;;;;;;17.25;11.05;;;21.20;1.00;;;;;;5051156;28;20024;-61
2022/10/31 11:59:53;;;;;;;17.70;11.32;;;21.30;1.00;;;;;;5050828;28;20040;-61
2022/10/31 12:02:20;;;;;;;19.63;11.82;;;21.30;1.00;;;;;;5046949;28;20014;-61
2022/10/31 12:05:15;;;;;;;15.23;11.23;;;21.30;1.00;;;;;;5049617;28;20048;-61
2022/10/31 12:07:40;;;;;;;16.05;11.13;;;21.30;1.00;;;;;;5040530;28;20033;-61
2022/10/31 12:10:13;;;;;;;22.85;13.30;;;21.30;1.00;;;;;;5047580;28;20497;-62
2022/10/31 12:13:00;;;;;;;19.25;13.18;;;21.30;1.00;;;;;;5050907;28;20017;-61
2022/10/31 12:15:34;;;;;;;23.08;12.88;;;21.20;1.00;;;;;;5053849;28;20072;-61
2022/10/31 12:18:18;;;;;;;19.63;12.75;;;21.20;1.00;;;;;;5051776;28;20174;-61
2022/10/31 12:21:32;;;;;;;18.60;10.55;;;21.10;1.00;;;;;;5051056;28;20490;-61
2022/10/31 12:24:27;;;;;;;18.25;12.30;;;20.90;1.00;;;;;;4992657;28;20040;-61
2022/10/31 12:27:18;;;;;;;18.40;11.40;;;20.90;1.00;;;;;;5046998;28;20037;-61
2022/10/31 12:30:01;;;;;;;20.33;12.23;;;20.90;1.00;;;;;;5052232;28;20044;-61
2022/10/31 12:32:47;;;;;;;19.40;11.52;;;20.80;1.00;;;;;;5052488;28;20163;-61
2022/10/31 12:35:24;;;;;;;16.02;11.35;;;20.80;1.00;;;;;;5056190;28;20017;-61
2022/10/31 12:37:55;;;;;;;20.95;11.80;;;20.80;1.00;;;;;;5051430;28;20052;-61
2022/10/31 12:40:42;;;;;;;24.33;12.45;;;20.80;1.00;;;;;;5048107;28;20032;-61
2022/10/31 12:43:39;;;;;;;19.42;11.13;;;20.70;1.00;;;;;;5068283;28;20383;-61
2022/10/31 12:46:13;;;;;;;21.80;12.18;;;20.80;1.00;;;;;;5048072;28;20473;-60
2022/10/31 12:49:00;;;;;;;17.77;11.32;;;20.80;1.00;;;;;;5058415;28;20036;-60
2022/10/31 12:51:38;;;;;;;21.15;11.85;;;20.80;1.00;;;;;;5067027;28;20579;-61
2022/10/31 12:54:34;;;;;;;18.65;11.38;;;20.90;1.00;;;;;;5049874;28;20040;-61
2022/10/31 12:57:21;;;;;;;18.73;10.93;;;21.10;1.00;;;;;;5053929;28;20096;-61
2022/10/31 12:59:59;;;;;;;21.42;10.30;;;21.20;1.00;;;;;;5047674;28;20029;-61
2022/10/31 13:02:34;;;;;;;15.35;9.68;;;21.40;1.00;;;;;;5051966;28;20025;-61
2022/10/31 13:05:19;;;;;;;15.05;9.43;;;21.50;1.00;;;;;;5050810;28;20021;-60